createdAt,value
2019-04-19T00:01:20.714Z,101420.46
2019-04-19T00:03:51.021Z,101419.63
2019-04-19T00:06:38.022Z,101424.95
2019-04-19T00:09:21.336Z,101419.36
2019-04-19T00:11:44.018Z,101424.00
2019-04-19T00:14:07.123Z,101420.47
2019-04-19T00:16:36.415Z,101425.72
2019-04-19T00:19:29.051Z,101427.70
2019-04-19T00:21:57.794Z,101423.36
2019-04-19T00:24:06.047Z,101417.78
2019-04-19T00:26:35.893Z,101423.03
2019-04-19T00:29:07.643Z,101422.33
2019-04-19T00:31:46.158Z,101422.83
2019-04-19T00:34:06.304Z,101427.33
2019-04-19T00:36:36.220Z,101421.81
2019-04-19T00:39:33.731Z,101425.58
2019-04-19T00:42:16.841Z,101425.17
2019-04-19T00:44:53.371Z,101427.05
2019-04-19T00:47:25.962Z,101426.91
2019-04-19T00:49:47.467Z,101428.33
2019-04-19T00:52:14.717Z,101428.06
2019-04-19T00:54:46.105Z,101428.56
2019-04-19T00:57:14.698Z,101423.95
2019-04-19T00:59:39.970Z,101425.38
2019-04-19T01:02:10.607Z,101424.99
2019-04-19T01:04:37.634Z,101423.59
2019-04-19T01:07:08.379Z,101430.53
2019-04-19T01:09:46.708Z,101430.03
2019-04-19T01:12:20.537Z,101427.41
2019-04-19T01:14:45.906Z,101433.13
2019-04-19T01:17:22.464Z,101425.22
2019-04-19T01:19:45.388Z,101425.05
2019-04-19T01:22:15.183Z,101426.31
2019-04-19T01:24:44.592Z,101427.27
2019-04-19T01:27:13.268Z,101424.64
2019-04-19T01:29:46.199Z,101432.52
2019-04-19T01:32:14.900Z,101427.28
2019-04-19T01:34:41.713Z,101431.59
2019-04-19T01:37:16.249Z,101427.84
2019-04-19T01:40:00.801Z,101428.81
2019-04-19T01:42:31.299Z,101433.13
2019-04-19T01:45:09.056Z,101429.24
2019-04-19T01:47:52.697Z,101432.74
2019-04-19T01:50:38.246Z,101431.26
2019-04-19T01:53:09.372Z,101434.52
2019-04-19T01:55:26.598Z,101435.36
2019-04-19T01:57:53.994Z,101431.78
2019-04-19T02:00:32.907Z,101429.14
2019-04-19T02:02:56.085Z,101428.35
2019-04-19T02:05:22.462Z,101431.67
2019-04-19T02:07:57.986Z,101428.19
2019-04-19T02:11:09.972Z,101426.30
2019-04-19T02:13:37.976Z,101436.34
2019-04-19T02:16:11.066Z,101436.61
2019-04-19T02:18:35.129Z,101438.70
2019-04-19T02:21:04.394Z,101438.14
2019-04-19T02:23:36.892Z,101436.84
2019-04-19T02:26:09.211Z,101444.11
2019-04-19T02:28:38.128Z,101440.58
2019-04-19T02:31:27.248Z,101446.10
2019-04-19T02:34:03.446Z,101440.50
2019-04-19T02:36:36.254Z,101445.14
2019-04-19T02:39:19.010Z,101452.94
2019-04-19T02:41:32.202Z,101455.31
2019-04-19T02:44:03.931Z,101459.91
2019-04-19T02:49:09.457Z,101461.70
2019-04-19T02:54:10.371Z,101463.43
2019-04-19T02:57:12.488Z,101466.22
2019-04-19T02:59:30.222Z,101469.30
2019-04-19T03:02:16.915Z,101463.53
2019-04-19T03:06:36.864Z,101469.95
2019-04-19T03:08:58.851Z,101467.58
2019-04-19T03:11:45.823Z,101479.66
2019-04-19T03:14:12.030Z,101474.52
2019-04-19T03:16:52.415Z,101473.98
2019-04-19T03:19:09.459Z,101475.62
2019-04-19T03:21:43.322Z,101479.20
2019-04-19T03:24:16.835Z,101475.86
2019-04-19T03:26:46.056Z,101481.69
2019-04-19T03:29:14.878Z,101478.66
2019-04-19T03:32:05.207Z,101482.07
2019-04-19T03:34:30.363Z,101478.43
2019-04-19T03:36:47.896Z,101481.92
2019-04-19T03:39:23.483Z,101481.84
2019-04-19T03:42:17.975Z,101491.58
2019-04-19T03:44:30.648Z,101490.35
2019-04-19T03:47:06.497Z,101486.90
2019-04-19T03:49:37.176Z,101491.69
2019-04-19T03:52:08.174Z,101494.14
2019-04-19T03:54:32.807Z,101492.53
2019-04-19T03:57:00.541Z,101490.23
2019-04-19T03:59:18.354Z,101496.09
2019-04-19T04:01:52.787Z,101496.50
2019-04-19T04:10:06.637Z,101501.61
2019-04-19T04:13:16.892Z,101507.34
2019-04-19T04:15:57.720Z,101505.98
2019-04-19T04:18:17.579Z,101511.53
2019-04-19T04:20:52.041Z,101499.98
2019-04-19T04:23:25.379Z,101511.55
2019-04-19T04:25:57.379Z,101516.11
2019-04-19T04:28:36.741Z,101519.66
2019-04-19T04:31:00.870Z,101518.84
2019-04-19T04:33:33.546Z,101520.70
2019-04-19T04:36:15.844Z,101521.89
2019-04-19T04:38:27.249Z,101525.77
2019-04-19T04:40:50.745Z,101530.08
2019-04-19T04:43:31.266Z,101529.27
2019-04-19T04:46:21.129Z,101531.32
2019-04-19T04:48:49.347Z,101532.99
2019-04-19T04:51:26.125Z,101531.63
2019-04-19T04:53:55.301Z,101533.66
2019-04-19T04:56:33.962Z,101537.52
2019-04-19T04:59:06.445Z,101545.51
2019-04-19T05:01:43.581Z,101546.42
2019-04-19T05:04:16.970Z,101549.23
2019-04-19T05:06:54.353Z,101555.24
2019-04-19T05:09:22.569Z,101555.37
2019-04-19T05:11:59.085Z,101557.20
2019-04-19T05:14:26.264Z,101567.08
2019-04-19T05:17:10.427Z,101567.28
2019-04-19T05:19:20.272Z,101567.08
2019-04-19T05:21:52.886Z,101573.76
2019-04-19T05:24:22.206Z,101576.47
2019-04-19T05:27:00.752Z,101581.17
2019-04-19T05:29:18.426Z,101580.97
2019-04-19T05:31:41.231Z,101581.63
2019-04-19T05:34:27.708Z,101587.09
2019-04-19T05:36:55.046Z,101590.77
2019-04-19T05:39:41.596Z,101587.73
2019-04-19T05:42:14.530Z,101591.76
2019-04-19T05:45:31.476Z,101592.19
2019-04-19T05:47:37.663Z,101595.66
2019-04-19T05:50:23.828Z,101598.44
2019-04-19T05:52:42.276Z,101600.72
2019-04-19T05:54:58.003Z,101604.03
2019-04-19T05:57:49.122Z,101600.88
2019-04-19T06:00:14.144Z,101601.16
2019-04-19T06:02:36.005Z,101604.84
2019-04-19T06:05:20.220Z,101606.55
2019-04-19T06:07:44.603Z,101607.50
2019-04-19T06:10:00.154Z,101607.93
2019-04-19T06:12:33.254Z,101610.16
2019-04-19T06:15:20.327Z,101615.02
2019-04-19T06:18:13.097Z,101611.33
2019-04-19T06:20:46.155Z,101612.02
2019-04-19T06:23:18.975Z,101617.22
2019-04-19T06:26:05.152Z,101605.08
2019-04-19T06:30:52.084Z,101610.77
2019-04-19T06:33:25.077Z,101616.84
2019-04-19T06:35:41.569Z,101617.73
2019-04-19T06:38:01.365Z,101619.70
2019-04-19T06:40:33.427Z,101617.91
2019-04-19T06:43:11.163Z,101616.45
2019-04-19T06:45:49.113Z,101614.88
2019-04-19T06:48:07.579Z,101621.69
2019-04-19T06:50:36.813Z,101624.40
2019-04-19T06:53:01.989Z,101631.41
2019-04-19T06:55:35.820Z,101628.39
2019-04-19T06:58:11.834Z,101632.64
2019-04-19T07:00:45.249Z,101619.61
2019-04-19T07:03:02.641Z,101625.58
2019-04-19T07:05:43.990Z,101634.36
2019-04-19T07:08:43.706Z,101628.44
2019-04-19T07:10:57.517Z,101635.58
2019-04-19T07:13:17.474Z,101633.05
2019-04-19T07:15:55.203Z,101636.41
2019-04-19T07:18:22.576Z,101634.27
2019-04-19T07:20:56.388Z,101625.73
2019-04-19T07:23:24.489Z,101636.73
2019-04-19T07:25:59.881Z,101635.12
2019-04-19T07:28:13.974Z,101637.48
2019-04-19T07:30:35.523Z,101641.00
2019-04-19T07:33:10.604Z,101643.00
2019-04-19T07:35:57.564Z,101638.36
2019-04-19T07:38:41.281Z,101649.63
2019-04-19T07:40:58.275Z,101647.09
2019-04-19T07:43:21.009Z,101651.98
2019-04-19T07:46:12.385Z,101655.06
2019-04-19T07:48:23.068Z,101652.58
2019-04-19T07:50:58.948Z,101657.98
2019-04-19T07:53:29.572Z,101657.98
2019-04-19T07:56:01.704Z,101653.59
2019-04-19T07:58:44.183Z,101661.09
2019-04-19T08:01:15.041Z,101661.73
2019-04-19T08:04:00.973Z,101658.19
2019-04-19T08:06:32.704Z,101666.02
2019-04-19T08:09:02.509Z,101669.16
2019-04-19T08:11:29.238Z,101669.16
2019-04-19T08:17:07.271Z,101673.55
2019-04-19T08:28:33.234Z,101666.57
2019-04-19T08:31:00.699Z,101663.97
2019-04-19T08:33:27.540Z,101666.71
2019-04-19T08:36:00.891Z,101665.75
2019-04-19T08:38:30.369Z,101667.23
2019-04-19T08:41:11.629Z,101667.23
2019-04-19T08:43:47.432Z,101663.19
2019-04-19T08:46:17.756Z,101653.34
2019-04-19T08:49:22.847Z,101653.34
2019-04-19T08:51:51.100Z,101657.37
2019-04-19T08:54:43.557Z,101657.02
2019-04-19T08:57:18.790Z,101653.86
2019-04-19T09:00:06.508Z,101652.77
2019-04-19T09:02:34.554Z,101652.77
2019-04-19T09:05:04.960Z,101644.53
2019-04-19T09:12:38.699Z,101656.73
2019-04-19T09:15:06.473Z,101656.73
2019-04-19T09:17:59.302Z,101643.27
2019-04-19T09:20:15.368Z,101643.27
2019-04-19T09:22:35.806Z,101644.49
2019-04-19T09:24:57.156Z,101647.06
2019-04-19T09:27:42.088Z,101640.52
2019-04-19T09:30:13.576Z,101645.66
2019-04-19T09:32:27.322Z,101642.66
2019-04-19T09:35:00.587Z,101643.16
2019-04-19T09:37:43.001Z,101653.72
2019-04-19T09:40:02.800Z,101649.64
2019-04-19T09:42:38.066Z,101652.16
2019-04-19T09:44:58.361Z,101644.67
2019-04-19T09:47:25.191Z,101635.86
2019-04-19T09:50:06.695Z,101635.86
2019-04-19T09:52:47.606Z,101642.72
2019-04-19T09:55:15.490Z,101635.34
2019-04-19T09:57:44.951Z,101634.30
2019-04-19T10:00:04.356Z,101634.30
2019-04-19T10:02:31.728Z,101637.24
2019-04-19T10:04:56.842Z,101621.38
2019-04-19T10:07:25.513Z,101630.81
2019-04-19T10:10:02.819Z,101620.47
2019-04-19T10:12:25.217Z,101631.78
2019-04-19T10:14:54.085Z,101623.14
2019-04-19T10:17:24.783Z,101623.63
2019-04-19T10:19:54.910Z,101619.63
2019-04-19T10:22:25.098Z,101625.03
2019-04-19T10:24:54.436Z,101624.26
2019-04-19T10:27:29.741Z,101630.13
2019-04-19T10:29:59.820Z,101628.31
2019-04-19T10:32:30.831Z,101624.23
2019-04-19T10:35:00.883Z,101628.30
2019-04-19T10:37:29.934Z,101622.20
2019-04-19T10:39:59.543Z,101621.77
2019-04-19T10:42:29.378Z,101628.07
2019-04-19T10:44:58.311Z,101622.70
2019-04-19T10:47:29.219Z,101625.50
2019-04-19T10:50:11.990Z,101619.25
2019-04-19T10:52:29.091Z,101623.05
2019-04-19T10:59:00.810Z,101619.42
2019-04-19T11:05:07.908Z,101616.17
2019-04-19T11:07:39.821Z,101601.15
2019-04-19T11:10:09.797Z,101611.78
2019-04-19T11:12:38.609Z,101607.60
2019-04-19T11:15:08.764Z,101608.69
2019-04-19T11:17:38.063Z,101614.48
2019-04-19T11:20:19.905Z,101609.73
2019-04-19T11:22:37.744Z,101604.88
2019-04-19T11:25:08.007Z,101601.38
2019-04-19T11:27:37.392Z,101605.03
2019-04-19T11:30:15.068Z,101590.97
2019-04-19T11:32:49.840Z,101594.44
2019-04-19T11:35:19.433Z,101591.89
2019-04-19T11:37:49.141Z,101588.20
2019-04-19T11:40:19.421Z,101594.61
2019-04-19T11:42:49.015Z,101588.07
2019-04-19T11:45:18.175Z,101585.27
2019-04-19T11:47:47.404Z,101588.71
2019-04-19T11:50:16.322Z,101594.09
2019-04-19T11:53:08.111Z,101593.78
2019-04-19T11:55:40.447Z,101588.80
2019-04-19T11:58:10.524Z,101592.02
2019-04-19T12:00:58.607Z,101590.16
2019-04-19T12:03:30.035Z,101587.69
2019-04-19T12:06:00.180Z,101576.42
2019-04-19T12:08:29.033Z,101581.14
2019-04-19T12:11:22.764Z,101582.81
2019-04-19T12:13:52.281Z,101582.61
2019-04-19T12:16:21.294Z,101576.23
2019-04-19T12:18:50.043Z,101575.62
2019-04-19T12:21:19.022Z,101576.20
2019-04-19T12:23:48.647Z,101575.58
2019-04-19T12:26:17.886Z,101570.98
2019-04-19T12:28:47.797Z,101572.71
2019-04-19T12:31:16.813Z,101568.02
2019-04-19T12:33:45.544Z,101566.98
2019-04-19T12:36:15.124Z,101567.25
2019-04-19T12:38:44.092Z,101572.50
2019-04-19T12:41:14.213Z,101574.32
2019-04-19T12:43:43.618Z,101580.24
2019-04-19T12:46:12.917Z,101572.67
2019-04-19T12:48:43.544Z,101563.41
2019-04-19T12:51:28.053Z,101575.04
2019-04-19T13:01:15.218Z,101565.16
2019-04-19T13:07:38.875Z,101565.56
2019-04-19T13:10:29.164Z,101557.38
2019-04-19T13:13:36.127Z,101550.89
2019-04-19T13:16:06.262Z,101546.27
2019-04-19T13:18:36.153Z,101546.97
2019-04-19T13:21:06.085Z,101548.17
2019-04-19T13:23:38.184Z,101543.01
2019-04-19T13:26:07.205Z,101540.88
2019-04-19T13:28:35.858Z,101543.00
2019-04-19T13:31:05.924Z,101539.81
2019-04-19T13:33:34.853Z,101537.95
2019-04-19T13:36:06.651Z,101531.73
2019-04-19T13:38:57.403Z,101536.52
2019-04-19T13:41:45.115Z,101532.88
2019-04-19T13:44:14.686Z,101528.20
2019-04-19T13:46:44.522Z,101523.94
2019-04-19T13:49:14.611Z,101519.43
2019-04-19T13:51:44.757Z,101519.43
2019-04-19T13:54:14.667Z,101525.88
2019-04-19T13:56:45.954Z,101525.28
2019-04-19T13:59:14.274Z,101519.02
2019-04-19T14:01:43.147Z,101521.44
2019-04-19T14:04:11.801Z,101510.84
2019-04-19T14:06:40.498Z,101519.77
2019-04-19T14:09:11.530Z,101510.66
2019-04-19T14:11:40.347Z,101509.10
2019-04-19T14:14:09.805Z,101501.89
2019-04-19T14:16:39.685Z,101508.84
2019-04-19T14:19:10.053Z,101498.20
2019-04-19T14:21:39.210Z,101498.43
2019-04-19T14:24:11.556Z,101502.57
2019-04-19T14:26:47.994Z,101493.70
2019-04-19T14:29:11.694Z,101490.41
2019-04-19T14:31:40.631Z,101493.48
2019-04-19T14:34:09.324Z,101491.61
2019-04-19T14:36:38.170Z,101491.30
2019-04-19T14:39:08.944Z,101475.40
2019-04-19T14:41:38.065Z,101482.59
2019-04-19T14:44:07.367Z,101486.38
2019-04-19T14:46:36.775Z,101480.30
2019-04-19T14:49:06.926Z,101479.83
2019-04-19T14:51:39.148Z,101470.65
2019-04-19T14:54:06.883Z,101481.80
2019-04-19T14:57:11.177Z,101481.59
2019-04-19T14:59:40.796Z,101475.26
2019-04-19T15:02:26.895Z,101479.62
2019-04-19T15:05:03.265Z,101473.89
2019-04-19T15:07:32.410Z,101479.98
2019-04-19T15:10:01.756Z,101475.64
2019-04-19T15:12:31.074Z,101482.78
2019-04-19T15:14:59.850Z,101478.59
2019-04-19T15:17:28.746Z,101478.53
2019-04-19T15:19:57.683Z,101481.83
2019-04-19T15:22:26.446Z,101475.23
2019-04-19T15:24:55.145Z,101474.92
2019-04-19T15:27:25.130Z,101469.52
2019-04-19T15:29:54.725Z,101470.89
2019-04-19T15:32:24.440Z,101465.79
2019-04-19T15:34:53.844Z,101471.23
2019-04-19T15:37:23.180Z,101463.16
2019-04-19T15:39:52.011Z,101473.59
2019-04-19T15:42:20.652Z,101471.39
2019-04-19T15:44:49.350Z,101470.63
2019-04-19T15:47:18.967Z,101471.16
2019-04-19T15:49:48.213Z,101471.98
2019-04-19T15:52:22.029Z,101475.02
2019-04-19T15:55:46.247Z,101477.31
2019-04-19T15:59:10.907Z,101474.58
2019-04-19T16:02:17.936Z,101463.87
2019-04-19T16:05:58.116Z,101468.27
2019-04-19T16:08:40.890Z,101470.92
2019-04-19T16:11:28.727Z,101462.92
2019-04-19T16:13:57.601Z,101463.55
2019-04-19T16:16:26.984Z,101466.19
2019-04-19T16:18:56.243Z,101467.02
2019-04-19T16:21:33.004Z,101474.39
2019-04-19T16:23:55.362Z,101465.69
2019-04-19T16:26:24.452Z,101463.19
2019-04-19T16:28:55.670Z,101455.25
2019-04-19T16:31:24.400Z,101460.98
2019-04-19T16:33:54.101Z,101457.72
2019-04-19T16:36:23.255Z,101462.92
2019-04-19T16:38:52.994Z,101456.41
2019-04-19T16:41:22.744Z,101464.05
2019-04-19T16:43:51.574Z,101459.44
2019-04-19T16:46:25.342Z,101457.66
2019-04-19T16:49:08.738Z,101461.95
2019-04-19T16:59:23.832Z,101451.48
2019-04-19T17:01:54.750Z,101452.75
2019-04-19T17:04:26.054Z,101453.98
2019-04-19T17:06:54.327Z,101456.44
2019-04-19T17:09:23.020Z,101457.13
2019-04-19T17:11:51.665Z,101455.58
2019-04-19T17:14:21.039Z,101456.63
2019-04-19T17:17:00.399Z,101453.86
2019-04-19T17:20:00.590Z,101460.66
2019-04-19T17:22:40.750Z,101459.73
2019-04-19T17:25:11.238Z,101458.67
2019-04-19T17:27:41.038Z,101461.75
2019-04-19T17:30:12.674Z,101468.74
2019-04-19T17:32:42.068Z,101467.30
2019-04-19T17:35:12.268Z,101467.39
2019-04-19T17:37:42.305Z,101464.49
2019-04-19T17:40:11.305Z,101473.04
2019-04-19T17:42:40.388Z,101470.05
2019-04-19T17:45:09.504Z,101467.09
2019-04-19T17:47:40.865Z,101472.23
2019-04-19T17:50:09.071Z,101479.69
2019-04-19T17:52:39.093Z,101476.20
2019-04-19T17:55:36.710Z,101480.73
2019-04-19T17:57:59.576Z,101480.16
2019-04-19T18:00:36.286Z,101478.91
2019-04-19T18:03:24.831Z,101487.16
2019-04-19T18:05:55.958Z,101482.62
2019-04-19T18:08:36.134Z,101486.78
2019-04-19T18:11:07.455Z,101488.80
2019-04-19T18:13:41.400Z,101487.13
2019-04-19T18:16:14.460Z,101491.40
2019-04-19T18:18:49.090Z,101494.36
2019-04-19T18:21:23.915Z,101499.42
2019-04-19T18:23:54.798Z,101497.99
2019-04-19T18:26:28.293Z,101495.71
2019-04-19T18:28:54.091Z,101499.95
2019-04-19T18:31:32.727Z,101505.32
2019-04-19T18:34:09.704Z,101507.58
2019-04-19T18:36:41.865Z,101515.09
2019-04-19T18:39:06.825Z,101508.17
2019-04-19T18:41:37.027Z,101513.64
2019-04-19T18:44:15.121Z,101517.97
2019-04-19T18:46:40.700Z,101517.20
2019-04-19T18:49:11.684Z,101516.56
2019-04-19T18:51:47.990Z,101509.86
2019-04-19T18:54:25.902Z,101518.33
2019-04-19T18:56:58.604Z,101519.59
2019-04-19T18:59:26.149Z,101517.50
2019-04-19T19:02:18.520Z,101522.09
2019-04-19T19:05:00.368Z,101526.84
2019-04-19T19:08:20.526Z,101524.56
2019-04-19T19:10:52.347Z,101522.77
2019-04-19T19:13:55.812Z,101522.86
2019-04-19T19:16:39.870Z,101529.97
2019-04-19T19:19:22.736Z,101531.13
2019-04-19T19:22:20.544Z,101532.70
2019-04-19T19:25:08.760Z,101532.88
2019-04-19T19:27:46.169Z,101535.30
2019-04-19T19:30:17.252Z,101535.13
2019-04-19T19:33:07.597Z,101536.23
2019-04-19T19:36:13.082Z,101546.75
2019-04-19T19:39:03.260Z,101548.44
2019-04-19T19:42:34.642Z,101548.13
2019-04-19T19:44:59.909Z,101547.77
2019-04-19T19:47:58.903Z,101552.77
2019-04-19T19:50:30.309Z,101554.20
2019-04-19T19:53:25.574Z,101552.35
2019-04-19T19:56:04.006Z,101552.35
2019-04-19T19:58:34.262Z,101555.61
2019-04-19T20:04:27.189Z,101552.81
2019-04-19T20:07:14.081Z,101569.84
2019-04-19T20:10:14.119Z,101574.12
2019-04-19T20:13:12.739Z,101574.12
2019-04-19T20:16:00.911Z,101573.79
2019-04-19T20:18:39.546Z,101568.26
2019-04-19T20:21:11.829Z,101568.26
2019-04-19T20:24:04.181Z,101572.31
2019-04-19T20:26:50.175Z,101579.36
2019-04-19T20:29:25.406Z,101561.92
2019-04-19T20:31:54.509Z,101574.48
2019-04-19T20:35:13.959Z,101574.48
2019-04-19T20:38:10.486Z,101577.91
2019-04-19T20:40:57.759Z,101576.77
2019-04-19T20:46:21.847Z,101583.17
2019-04-19T20:52:32.612Z,101582.12
2019-04-19T20:55:28.387Z,101566.72
2019-04-19T20:58:29.194Z,101566.72
2019-04-19T21:01:10.440Z,101590.34
2019-04-19T21:03:43.769Z,101595.16
2019-04-19T21:06:41.396Z,101595.16
2019-04-19T21:09:45.486Z,101597.98
2019-04-19T21:12:27.657Z,101600.04
2019-04-19T21:15:13.938Z,101602.02
2019-04-19T21:17:48.422Z,101605.00
2019-04-19T21:20:28.017Z,101605.00
2019-04-19T21:26:14.770Z,101600.95
2019-04-19T21:28:47.739Z,101605.64
2019-04-19T21:31:23.425Z,101596.09
2019-04-19T21:34:07.035Z,101606.53
2019-04-19T21:36:42.341Z,101606.53
2019-04-19T21:39:12.984Z,101596.63
2019-04-19T21:41:48.757Z,101596.63
2019-04-19T21:45:06.796Z,101594.69
2019-04-19T21:47:54.781Z,101608.88
2019-04-19T21:50:29.465Z,101612.00
2019-04-19T21:53:03.505Z,101612.00
2019-04-19T21:55:35.667Z,101601.77
2019-04-19T21:58:27.597Z,101604.03
2019-04-19T22:01:25.460Z,101619.51
2019-04-19T22:03:57.419Z,101619.51
2019-04-19T22:06:33.231Z,101619.51
2019-04-19T22:09:11.480Z,101619.38
2019-04-19T22:11:40.574Z,101619.38
2019-04-19T22:14:24.828Z,101605.77
2019-04-19T22:16:56.794Z,101614.86
2019-04-19T22:22:41.476Z,101623.65
2019-04-19T22:25:43.311Z,101624.19
2019-04-19T22:28:09.819Z,101618.79
2019-04-19T22:31:11.307Z,101625.06
2019-04-19T22:33:43.615Z,101623.50
2019-04-19T22:36:39.034Z,101627.55
2019-04-19T22:39:05.691Z,101627.55
2019-04-19T22:41:48.957Z,101625.41
2019-04-19T22:44:18.596Z,101628.62
2019-04-19T22:46:55.980Z,101624.28
2019-04-19T22:49:33.976Z,101630.66
2019-04-19T22:52:09.285Z,101634.70
2019-04-19T22:54:40.491Z,101631.66
2019-04-19T22:57:27.906Z,101631.66
2019-04-19T22:59:59.841Z,101627.23
2019-04-19T23:02:50.194Z,101622.34
2019-04-19T23:05:25.965Z,101622.34
2019-04-19T23:07:59.064Z,101629.20
2019-04-19T23:10:41.911Z,101634.64
2019-04-19T23:13:11.819Z,101628.74
2019-04-19T23:15:44.027Z,101624.91
2019-04-19T23:18:23.243Z,101630.08
2019-04-19T23:21:05.376Z,101630.08
2019-04-19T23:23:34.692Z,101633.80
2019-04-19T23:26:22.583Z,101635.77
2019-04-19T23:28:49.533Z,101641.53
2019-04-19T23:31:21.098Z,101634.87
2019-04-19T23:33:58.679Z,101635.43
2019-04-19T23:36:31.243Z,101627.28
2019-04-19T23:39:39.197Z,101634.03
2019-04-19T23:42:37.315Z,101635.34
2019-04-19T23:45:14.727Z,101629.93
2019-04-19T23:48:00.394Z,101633.24
2019-04-19T23:50:37.308Z,101633.56
2019-04-19T23:53:48.560Z,101633.56
2019-04-19T23:56:38.291Z,101634.59
2019-04-19T23:59:36.902Z,101625.47
